createdAt,value
2023-12-31T00:02:24.895Z,4.69
2023-12-31T00:08:16.830Z,4.72
2023-12-31T00:10:44.601Z,4.68
2023-12-31T00:13:12.208Z,4.68
2023-12-31T00:15:39.768Z,4.66
2023-12-31T00:18:07.482Z,4.66
2023-12-31T00:20:35.009Z,4.66
2023-12-31T00:23:02.812Z,4.66
2023-12-31T00:25:30.561Z,4.66
2023-12-31T00:27:58.115Z,4.66
2023-12-31T00:30:28.881Z,4.66
2023-12-31T00:32:56.546Z,4.66
2023-12-31T00:35:24.598Z,4.66
2023-12-31T00:37:52.150Z,4.66
2023-12-31T00:40:19.982Z,4.65
2023-12-31T00:42:47.443Z,4.65
2023-12-31T00:45:15.034Z,4.65
2023-12-31T00:47:42.571Z,4.64
2023-12-31T00:50:11.029Z,4.63
2023-12-31T00:52:38.617Z,4.62
2023-12-31T00:55:06.715Z,4.61
2023-12-31T00:57:34.875Z,4.59
2023-12-31T01:00:02.508Z,4.55
2023-12-31T01:02:31.273Z,4.50
2023-12-31T01:04:58.857Z,4.45
2023-12-31T01:07:26.482Z,4.42
2023-12-31T01:09:53.974Z,4.38
2023-12-31T01:12:21.486Z,4.35
2023-12-31T01:14:48.952Z,4.33
2023-12-31T01:17:16.552Z,4.30
2023-12-31T01:19:44.133Z,4.28
2023-12-31T01:22:11.689Z,4.26
2023-12-31T01:24:39.186Z,4.25
2023-12-31T01:27:06.718Z,4.24
2023-12-31T01:29:38.360Z,4.22
2023-12-31T01:32:07.018Z,4.19
2023-12-31T01:34:35.553Z,4.16
2023-12-31T01:37:04.743Z,4.12
2023-12-31T01:39:32.220Z,4.09
2023-12-31T01:41:59.677Z,4.06
2023-12-31T01:44:27.296Z,4.05
2023-12-31T01:46:54.809Z,4.03
2023-12-31T01:49:22.811Z,4.01
2023-12-31T01:51:50.843Z,4.00
2023-12-31T01:54:18.351Z,3.99
2023-12-31T01:56:45.926Z,3.98
2023-12-31T01:59:13.724Z,3.98
2023-12-31T02:01:42.187Z,3.97
2023-12-31T02:04:09.843Z,3.98
2023-12-31T02:06:37.448Z,3.99
2023-12-31T02:09:04.963Z,4.00
2023-12-31T02:11:32.744Z,4.00
2023-12-31T02:14:00.239Z,4.00
2023-12-31T02:16:29.065Z,4.01
2023-12-31T02:18:56.585Z,4.01
2023-12-31T02:21:24.200Z,4.01
2023-12-31T02:23:51.722Z,3.99
2023-12-31T02:26:19.265Z,3.99
2023-12-31T02:28:46.817Z,3.98
2023-12-31T02:31:14.322Z,3.97
2023-12-31T02:33:41.945Z,3.96
2023-12-31T02:36:10.599Z,3.93
2023-12-31T02:38:38.082Z,3.89
2023-12-31T02:41:05.580Z,3.85
2023-12-31T02:43:33.170Z,3.82
2023-12-31T02:46:00.703Z,3.79
2023-12-31T02:48:28.320Z,3.76
2023-12-31T02:50:57.768Z,3.73
2023-12-31T02:53:25.257Z,3.69
2023-12-31T02:55:52.907Z,3.66
2023-12-31T02:58:20.476Z,3.65
2023-12-31T03:00:48.084Z,3.63
2023-12-31T03:03:16.042Z,3.60
2023-12-31T03:05:43.815Z,3.57
